Time;durP1;ratioP1;P1;durP2;ratioP2;P2;SDS_P1;SDS_P2;PMS_P1;PMS_P2;Temp;Humidity;BMP_temperature;BMP_pressure;BME280_temperature;BME280_humidity;BME280_pressure;Samples;Min_cycle;Max_cycle;Signal;HPM_P1;HPM_P2
2021/05/07 00:00:53;;;;;;;0.40;0.20;;;8.00;99.90;;;;;;4976110;28;20030;-88
2021/05/07 00:03:19;;;;;;;0.57;0.30;;;7.70;99.90;;;;;;4951559;28;20398;-87
2021/05/07 00:05:51;;;;;;;0.40;0.20;;;7.80;99.90;;;;;;4956401;28;20527;-88
2021/05/07 00:08:17;;;;;;;0.63;0.40;;;7.80;99.90;;;;;;4944308;29;20496;-88
2021/05/07 00:10:42;;;;;;;0.53;0.20;;;7.70;99.90;;;;;;4948330;28;20035;-89
2021/05/07 00:13:08;;;;;;;0.83;0.20;;;7.80;99.90;;;;;;4949087;28;20031;-88
2021/05/07 00:15:34;;;;;;;1.00;0.20;;;7.70;99.90;;;;;;4957298;28;20467;-87
2021/05/07 00:17:59;;;;;;;0.43;0.27;;;7.80;99.90;;;;;;4958141;28;20039;-88
2021/05/07 00:20:25;;;;;;;0.33;0.20;;;7.90;99.90;;;;;;4955422;29;20035;-88
2021/05/07 00:22:50;;;;;;;0.33;0.20;;;7.70;99.90;;;;;;4941277;29;20054;-88
2021/05/07 00:25:16;;;;;;;0.87;0.30;;;7.70;99.90;;;;;;4957414;29;20031;-88
2021/05/07 00:27:43;;;;;;;0.37;0.20;;;7.90;99.90;;;;;;4960498;28;20023;-88
2021/05/07 00:30:10;;;;;;;0.83;0.20;;;7.90;99.90;;;;;;4975126;28;20496;-88
2021/05/07 00:32:36;;;;;;;0.73;0.30;;;7.70;99.90;;;;;;4959356;28;20026;-88
2021/05/07 00:35:02;;;;;;;0.40;0.20;;;8.00;99.90;;;;;;4960336;28;20050;-88
2021/05/07 00:37:27;;;;;;;0.30;0.20;;;7.60;99.90;;;;;;4947219;29;20039;-88
2021/05/07 00:39:56;;;;;;;0.43;0.20;;;7.70;99.90;;;;;;4941722;28;20531;-88
2021/05/07 00:42:22;;;;;;;0.13;0.13;;;7.70;99.90;;;;;;4940970;29;20123;-88
2021/05/07 00:44:47;;;;;;;1.90;0.30;;;7.70;99.90;;;;;;4957764;28;20073;-89
2021/05/07 00:47:13;;;;;;;0.30;0.10;;;7.80;99.90;;;;;;4951461;28;20027;-88
2021/05/07 00:49:40;;;;;;;0.23;0.10;;;7.70;99.90;;;;;;4955601;29;20034;-88
2021/05/07 00:52:06;;;;;;;0.30;0.17;;;7.70;99.90;;;;;;4952021;28;20118;-88
2021/05/07 00:54:35;;;;;;;0.50;0.20;;;7.70;99.90;;;;;;4972381;28;20062;-88
2021/05/07 00:57:02;;;;;;;0.23;0.10;;;7.60;99.90;;;;;;4951524;29;20409;-88
2021/05/07 00:59:31;;;;;;;0.27;0.10;;;7.80;99.90;;;;;;4968455;28;20400;-88
2021/05/07 01:01:56;;;;;;;0.40;0.20;;;7.70;99.90;;;;;;4958504;28;20043;-88
2021/05/07 01:04:22;;;;;;;0.30;0.30;;;7.30;99.90;;;;;;4946997;29;20039;-88
2021/05/07 01:06:48;;;;;;;0.50;0.20;;;7.70;99.90;;;;;;4946782;28;20031;-88
2021/05/07 01:09:13;;;;;;;0.47;0.30;;;7.70;99.90;;;;;;4976412;28;20070;-88
2021/05/07 01:11:40;;;;;;;2.77;0.40;;;7.60;99.90;;;;;;4955649;28;20109;-88
2021/05/07 01:14:06;;;;;;;0.47;0.20;;;7.60;99.90;;;;;;4959282;28;20031;-88
2021/05/07 01:16:32;;;;;;;1.50;0.30;;;8.00;99.90;;;;;;4957890;28;20543;-87
2021/05/07 01:19:03;;;;;;;0.50;0.17;;;7.80;99.90;;;;;;4947606;28;20030;-88
2021/05/07 01:21:28;;;;;;;0.57;0.20;;;7.60;99.90;;;;;;4954048;28;20039;-87
2021/05/07 01:23:54;;;;;;;0.27;0.17;;;7.60;99.90;;;;;;4945853;29;20078;-87
2021/05/07 01:26:20;;;;;;;0.80;0.30;;;7.60;99.90;;;;;;4947706;28;20038;-89
2021/05/07 01:28:46;;;;;;;0.10;0.10;;;7.50;99.90;;;;;;4973258;28;20031;-88
2021/05/07 01:31:11;;;;;;;0.50;0.20;;;7.50;99.90;;;;;;4965554;28;20511;-88
2021/05/07 01:33:37;;;;;;;0.83;0.17;;;7.50;99.90;;;;;;4967631;28;20034;-88
2021/05/07 01:36:04;;;;;;;0.43;0.30;;;7.50;99.90;;;;;;4944508;29;20053;-87
2021/05/07 01:38:30;;;;;;;0.47;0.20;;;7.50;99.90;;;;;;4956607;28;20050;-89
2021/05/07 01:40:55;;;;;;;0.20;0.10;;;7.50;99.90;;;;;;4946823;28;20396;-88
2021/05/07 01:43:23;;;;;;;0.50;0.20;;;7.50;99.90;;;;;;4976108;28;20030;-88
2021/05/07 01:45:49;;;;;;;0.60;0.17;;;7.50;99.90;;;;;;4964469;28;20069;-88
2021/05/07 01:48:15;;;;;;;0.50;0.20;;;7.40;99.90;;;;;;4958003;28;20027;-89
2021/05/07 01:50:44;;;;;;;0.53;0.10;;;7.50;99.90;;;;;;4955728;29;20392;-88
2021/05/07 01:53:10;;;;;;;1.57;0.10;;;7.60;99.90;;;;;;4956620;28;20401;-88
2021/05/07 01:55:41;;;;;;;0.20;0.10;;;7.30;99.90;;;;;;4966694;28;20033;-88
2021/05/07 01:58:09;;;;;;;0.22;0.20;;;7.40;99.90;;;;;;4941703;29;20409;-88
2021/05/07 02:00:35;;;;;;;0.40;0.20;;;7.70;99.90;;;;;;4945218;28;20094;-89
2021/05/07 02:03:03;;;;;;;0.53;0.20;;;7.30;99.90;;;;;;4960004;28;20035;-88
2021/05/07 02:05:32;;;;;;;0.37;0.10;;;7.30;99.90;;;;;;4962634;28;20027;-88
2021/05/07 02:07:58;;;;;;;0.63;0.10;;;7.20;99.90;;;;;;4948994;29;20023;-88
2021/05/07 02:10:26;;;;;;;0.87;0.20;;;7.20;99.90;;;;;;4941346;28;20023;-89
2021/05/07 02:12:54;;;;;;;0.20;0.10;;;7.30;99.90;;;;;;4957072;28;20600;-87
2021/05/07 02:15:22;;;;;;;0.97;0.30;;;7.30;99.90;;;;;;4956216;28;20023;-88
2021/05/07 02:17:48;;;;;;;0.53;0.20;;;7.20;99.90;;;;;;4969647;28;20023;-89
2021/05/07 02:20:15;;;;;;;0.33;0.10;;;7.00;99.90;;;;;;4960676;28;20365;-88
2021/05/07 02:22:42;;;;;;;0.30;0.13;;;6.90;99.90;;;;;;4972623;28;20144;-89
2021/05/07 02:25:09;;;;;;;0.20;0.17;;;6.90;99.90;;;;;;4962040;28;20027;-88
2021/05/07 02:27:35;;;;;;;0.30;0.20;;;6.80;99.90;;;;;;4970244;28;20019;-88
2021/05/07 02:30:01;;;;;;;0.50;0.10;;;6.80;99.90;;;;;;4975397;28;20097;-88
2021/05/07 02:32:27;;;;;;;0.40;0.10;;;6.80;99.90;;;;;;4958864;28;20034;-89
2021/05/07 02:34:53;;;;;;;0.63;0.27;;;6.80;99.90;;;;;;4944949;28;20063;-88
2021/05/07 02:37:18;;;;;;;0.90;0.20;;;7.00;99.90;;;;;;4955670;29;20027;-89
2021/05/07 02:39:44;;;;;;;0.37;0.13;;;6.80;99.90;;;;;;4949449;28;20027;-88
2021/05/07 02:42:10;;;;;;;0.47;0.20;;;6.70;99.90;;;;;;4952489;28;20116;-89
2021/05/07 02:44:35;;;;;;;0.60;0.20;;;6.80;99.90;;;;;;4957304;28;20034;-88
2021/05/07 02:47:05;;;;;;;0.87;0.10;;;6.70;99.90;;;;;;4957773;28;20054;-89
2021/05/07 02:49:32;;;;;;;0.23;0.10;;;6.90;99.90;;;;;;4950760;29;20049;-88
2021/05/07 02:51:58;;;;;;;0.77;0.10;;;6.70;99.90;;;;;;4955149;28;20389;-88
2021/05/07 02:54:24;;;;;;;0.20;0.10;;;6.80;99.90;;;;;;4953526;28;20023;-88
2021/05/07 02:56:50;;;;;;;0.60;0.20;;;6.80;99.90;;;;;;4974323;28;20026;-89
2021/05/07 02:59:16;;;;;;;0.60;0.20;;;6.80;99.90;;;;;;4940468;29;20208;-88
2021/05/07 03:01:43;;;;;;;0.50;0.20;;;6.80;99.90;;;;;;4945435;29;20062;-89
2021/05/07 03:04:09;;;;;;;1.03;0.20;;;6.80;99.90;;;;;;4940045;29;20510;-89
2021/05/07 03:06:34;;;;;;;0.40;0.20;;;6.80;99.90;;;;;;4955702;28;20050;-89
2021/05/07 03:09:01;;;;;;;0.53;0.20;;;6.80;99.90;;;;;;4970496;28;20488;-89
2021/05/07 03:11:26;;;;;;;0.80;0.30;;;7.00;99.90;;;;;;4960969;28;20023;-89
2021/05/07 03:13:53;;;;;;;0.80;0.40;;;6.80;99.90;;;;;;4947468;29;20038;-89
2021/05/07 03:16:21;;;;;;;0.53;0.30;;;6.80;99.90;;;;;;4939286;29;20114;-88
2021/05/07 03:18:48;;;;;;;1.27;0.30;;;6.70;99.90;;;;;;4955118;28;20031;-89
2021/05/07 03:21:13;;;;;;;0.57;0.20;;;6.70;99.90;;;;;;4957902;28;20034;-88
2021/05/07 03:23:39;;;;;;;0.60;0.23;;;6.70;99.90;;;;;;4957914;28;20027;-88
2021/05/07 03:26:05;;;;;;;0.40;0.20;;;6.70;99.90;;;;;;4946890;29;20037;-89
2021/05/07 03:28:30;;;;;;;1.10;0.30;;;7.00;99.90;;;;;;4952879;28;20031;-89
2021/05/07 03:30:56;;;;;;;1.20;0.47;;;6.80;99.90;;;;;;4939564;28;20039;-89
2021/05/07 03:33:21;;;;;;;0.77;0.40;;;7.00;99.90;;;;;;4944083;28;20518;-88
2021/05/07 03:35:47;;;;;;;0.67;0.30;;;6.70;99.90;;;;;;4949904;29;20094;-89
2021/05/07 03:38:12;;;;;;;0.50;0.20;;;6.70;99.90;;;;;;4942320;29;20146;-89
2021/05/07 03:40:38;;;;;;;1.37;0.37;;;6.70;99.90;;;;;;4944171;29;20388;-88
2021/05/07 03:43:04;;;;;;;1.17;0.40;;;6.60;99.90;;;;;;4938683;28;20503;-90
2021/05/07 03:45:30;;;;;;;0.60;0.40;;;6.60;99.90;;;;;;4942529;28;20032;-89
2021/05/07 03:47:55;;;;;;;1.43;0.50;;;6.60;99.90;;;;;;4953941;29;20038;-90
2021/05/07 03:50:21;;;;;;;1.00;0.50;;;6.50;99.90;;;;;;4983565;28;20022;-90
2021/05/07 03:52:47;;;;;;;0.70;0.30;;;6.80;99.90;;;;;;4942282;29;20106;-90
2021/05/07 03:55:13;;;;;;;0.80;0.33;;;6.50;99.90;;;;;;4954117;28;20099;-90
2021/05/07 03:57:40;;;;;;;1.00;0.40;;;6.40;99.90;;;;;;4954899;28;20543;-90
2021/05/07 04:00:10;;;;;;;0.87;0.40;;;6.60;99.90;;;;;;4953511;28;20024;-90
2021/05/07 04:02:36;;;;;;;1.07;0.40;;;6.40;99.90;;;;;;4966989;28;20027;-89
2021/05/07 04:05:02;;;;;;;1.53;0.50;;;6.40;99.90;;;;;;4954296;28;20159;-89
2021/05/07 04:07:29;;;;;;;1.70;0.60;;;6.40;99.90;;;;;;4954881;28;20112;-90
2021/05/07 04:10:01;;;;;;;1.37;0.50;;;6.20;99.90;;;;;;4963455;28;20022;-90
2021/05/07 04:15:12;;;;;;;0.97;0.40;;;6.30;99.90;;;;;;4957842;28;20046;-89
2021/05/07 04:17:38;;;;;;;0.97;0.37;;;6.30;99.90;;;;;;4968664;28;20031;-89
2021/05/07 04:20:06;;;;;;;1.33;0.50;;;6.30;99.90;;;;;;4963748;28;20022;-89
2021/05/07 04:22:31;;;;;;;1.03;0.50;;;6.30;99.90;;;;;;4948079;29;20259;-89
2021/05/07 04:24:57;;;;;;;1.10;0.50;;;6.20;99.90;;;;;;4959168;28;20086;-89
2021/05/07 04:27:23;;;;;;;0.63;0.23;;;6.20;99.90;;;;;;4959738;28;20810;-89
2021/05/07 04:29:49;;;;;;;1.03;0.30;;;6.20;99.90;;;;;;4976089;28;20034;-89
2021/05/07 04:32:15;;;;;;;0.70;0.23;;;6.20;99.90;;;;;;4977610;28;20443;-89
2021/05/07 04:34:40;;;;;;;0.97;0.33;;;6.20;99.90;;;;;;4947782;29;20039;-89
2021/05/07 04:37:06;;;;;;;0.80;0.20;;;6.10;99.90;;;;;;4937325;28;20110;-89
2021/05/07 04:39:32;;;;;;;0.90;0.30;;;6.10;99.90;;;;;;4958325;28;20035;-89
2021/05/07 04:41:58;;;;;;;0.97;0.20;;;6.00;99.90;;;;;;4951611;28;20039;-89
2021/05/07 04:44:23;;;;;;;1.20;0.30;;;6.00;99.90;;;;;;4942707;29;20424;-89
2021/05/07 04:46:49;;;;;;;0.50;0.20;;;6.00;99.90;;;;;;4957988;29;20023;-89
2021/05/07 04:49:15;;;;;;;0.40;0.30;;;6.00;99.90;;;;;;4957083;28;20027;-89
2021/05/07 04:51:40;;;;;;;0.70;0.23;;;5.90;99.90;;;;;;4944606;28;20042;-90
2021/05/07 04:54:07;;;;;;;0.60;0.30;;;5.90;99.90;;;;;;4959758;28;20042;-89
2021/05/07 04:56:33;;;;;;;0.93;0.20;;;5.90;99.90;;;;;;4966073;28;20030;-89
2021/05/07 04:58:58;;;;;;;0.67;0.20;;;5.90;99.90;;;;;;4963181;28;20032;-89
2021/05/07 05:01:24;;;;;;;0.63;0.27;;;5.90;99.90;;;;;;4938546;28;20067;-88
2021/05/07 05:03:50;;;;;;;2.33;0.30;;;5.90;99.90;;;;;;4939037;29;20082;-89
2021/05/07 05:06:16;;;;;;;0.60;0.20;;;6.00;99.90;;;;;;4948060;29;20039;-89
2021/05/07 05:08:41;;;;;;;1.90;0.37;;;6.00;99.90;;;;;;4955126;28;20034;-89
2021/05/07 05:11:07;;;;;;;0.50;0.30;;;6.00;99.90;;;;;;4943426;29;20035;-89
2021/05/07 05:13:33;;;;;;;0.67;0.27;;;6.00;99.90;;;;;;4940278;28;20077;-89
2021/05/07 05:15:58;;;;;;;0.50;0.20;;;6.00;99.90;;;;;;4968522;28;20035;-89
2021/05/07 05:18:36;;;;;;;0.77;0.40;;;6.00;99.90;;;;;;4938120;29;20400;-89
2021/05/07 05:21:04;;;;;;;0.97;0.30;;;6.00;99.90;;;;;;4941122;29;20038;-90
2021/05/07 05:23:31;;;;;;;0.50;0.20;;;5.90;99.90;;;;;;4952896;28;20043;-89
2021/05/07 05:25:58;;;;;;;1.17;0.30;;;6.00;99.90;;;;;;4944200;29;20032;-89
2021/05/07 05:28:24;;;;;;;0.40;0.20;;;5.90;99.90;;;;;;4947739;29;20071;-89
2021/05/07 05:30:50;;;;;;;0.60;0.30;;;6.00;99.90;;;;;;4954636;28;20154;-89
2021/05/07 05:33:16;;;;;;;0.50;0.20;;;6.00;99.90;;;;;;4935194;28;20058;-89
2021/05/07 05:35:41;;;;;;;0.57;0.30;;;6.00;99.90;;;;;;4939953;28;20054;-89
2021/05/07 05:38:08;;;;;;;0.60;0.30;;;6.00;99.90;;;;;;4940022;29;20035;-89
2021/05/07 05:40:33;;;;;;;1.10;0.40;;;6.00;99.90;;;;;;4953371;28;20027;-89
2021/05/07 05:43:00;;;;;;;1.77;0.70;;;6.00;99.90;;;;;;4954013;28;20102;-89
2021/05/07 05:45:26;;;;;;;2.10;0.70;;;6.10;99.90;;;;;;4969060;28;20065;-89
2021/05/07 05:48:05;;;;;;;2.17;0.87;;;6.10;99.90;;;;;;4948527;28;20027;-89
2021/05/07 05:50:32;;;;;;;1.73;0.60;;;6.10;99.90;;;;;;4959790;28;20029;-89
2021/05/07 05:52:58;;;;;;;2.47;0.80;;;6.10;99.90;;;;;;4935242;29;20023;-89
2021/05/07 05:55:24;;;;;;;2.57;0.90;;;6.10;99.90;;;;;;4951009;28;20023;-89
2021/05/07 05:57:51;;;;;;;2.07;0.73;;;6.10;99.90;;;;;;4933970;28;20037;-89
2021/05/07 06:00:17;;;;;;;1.70;0.73;;;6.20;99.90;;;;;;4955743;28;20019;-89
2021/05/07 06:02:43;;;;;;;2.03;0.93;;;6.10;99.90;;;;;;4937669;28;20043;-90
2021/05/07 06:05:10;;;;;;;2.07;1.00;;;6.10;99.90;;;;;;4942981;28;20680;-89
2021/05/07 06:07:37;;;;;;;2.73;0.90;;;6.10;99.90;;;;;;4956597;28;20074;-88
2021/05/07 06:10:04;;;;;;;1.27;0.80;;;6.10;99.90;;;;;;4961405;28;20121;-88
2021/05/07 06:12:30;;;;;;;3.30;1.20;;;6.00;99.90;;;;;;4944347;28;20031;-88
2021/05/07 06:14:56;;;;;;;3.73;1.63;;;6.20;99.90;;;;;;4954934;28;20046;-89
2021/05/07 06:17:21;;;;;;;3.63;1.10;;;6.20;99.90;;;;;;4936896;28;20082;-89
2021/05/07 06:19:47;;;;;;;3.73;1.30;;;6.20;99.90;;;;;;4953438;28;20023;-88
2021/05/07 06:22:13;;;;;;;4.70;1.10;;;6.10;99.90;;;;;;4941319;28;20019;-88
2021/05/07 06:24:38;;;;;;;2.57;1.10;;;6.20;99.90;;;;;;4936095;28;20106;-88
2021/05/07 06:27:04;;;;;;;4.13;1.47;;;6.20;99.90;;;;;;4955761;28;20035;-88
2021/05/07 06:29:30;;;;;;;4.90;1.30;;;6.20;99.90;;;;;;4953526;28;20031;-88
2021/05/07 06:31:56;;;;;;;4.43;1.57;;;6.30;99.90;;;;;;4945477;28;20057;-87
2021/05/07 06:34:22;;;;;;;3.83;1.23;;;6.30;99.90;;;;;;4953247;28;20059;-87
2021/05/07 06:36:48;;;;;;;2.70;1.20;;;6.40;99.90;;;;;;4941404;28;20063;-87
2021/05/07 06:39:14;;;;;;;3.30;1.53;;;6.60;99.90;;;;;;4945378;28;20035;-87
2021/05/07 06:41:40;;;;;;;3.67;1.30;;;6.50;99.90;;;;;;4928858;28;20043;-88
2021/05/07 06:44:07;;;;;;;3.30;1.10;;;6.60;99.90;;;;;;4943757;28;20036;-88
2021/05/07 06:46:32;;;;;;;3.50;1.40;;;6.50;99.90;;;;;;4940721;28;20118;-88
2021/05/07 06:48:58;;;;;;;3.13;1.30;;;6.60;99.90;;;;;;4944058;28;20117;-87
2021/05/07 06:51:24;;;;;;;3.50;1.30;;;6.60;99.90;;;;;;4959093;28;20055;-88
2021/05/07 06:53:50;;;;;;;3.80;1.90;;;6.60;99.90;;;;;;4956602;28;20027;-87
2021/05/07 06:56:20;;;;;;;2.70;1.30;;;6.60;99.90;;;;;;4958061;28;20037;-88
2021/05/07 06:58:46;;;;;;;5.03;1.83;;;6.60;99.90;;;;;;4956203;28;20035;-87
2021/05/07 07:01:11;;;;;;;3.30;1.60;;;6.60;99.90;;;;;;4962457;28;20444;-87
2021/05/07 07:03:37;;;;;;;3.17;1.33;;;6.60;99.90;;;;;;4937194;28;20072;-87
2021/05/07 07:06:03;;;;;;;4.43;1.63;;;6.60;99.90;;;;;;4957774;28;20035;-86
2021/05/07 07:08:29;;;;;;;5.47;2.20;;;6.60;99.90;;;;;;4939799;28;20023;-86
2021/05/07 07:10:56;;;;;;;4.57;1.93;;;6.60;99.90;;;;;;4956117;28;20032;-87
2021/05/07 07:13:22;;;;;;;4.93;2.20;;;6.60;99.90;;;;;;4940058;28;20062;-88
2021/05/07 07:15:47;;;;;;;3.80;2.00;;;6.60;99.90;;;;;;4958864;28;20113;-88
2021/05/07 07:18:18;;;;;;;4.07;2.00;;;6.60;99.90;;;;;;4938614;29;20036;-89
2021/05/07 07:20:44;;;;;;;4.33;2.07;;;6.50;99.90;;;;;;4936499;29;20484;-89
2021/05/07 07:23:09;;;;;;;5.07;2.30;;;6.60;99.90;;;;;;4935426;28;20067;-90
2021/05/07 07:25:35;;;;;;;6.03;1.97;;;6.50;99.90;;;;;;4946765;28;20039;-89
2021/05/07 07:28:06;;;;;;;4.00;2.10;;;6.50;99.90;;;;;;4932679;29;20027;-89
2021/05/07 07:30:32;;;;;;;5.73;2.63;;;6.50;99.90;;;;;;4949488;29;20031;-89
2021/05/07 07:32:59;;;;;;;4.07;2.27;;;6.50;99.90;;;;;;4934739;29;20035;-89
2021/05/07 07:35:25;;;;;;;5.27;2.50;;;6.50;99.90;;;;;;4951305;29;20390;-89
2021/05/07 07:37:50;;;;;;;4.67;2.70;;;6.50;99.90;;;;;;4953190;29;20038;-90
2021/05/07 07:40:16;;;;;;;5.13;2.17;;;6.40;99.90;;;;;;4935349;29;20447;-89
2021/05/07 07:42:42;;;;;;;4.40;2.40;;;6.50;99.90;;;;;;4935443;29;20039;-89
2021/05/07 07:45:09;;;;;;;4.67;2.47;;;6.40;99.90;;;;;;4939630;28;20404;-89
2021/05/07 07:47:35;;;;;;;4.97;2.87;;;6.40;99.90;;;;;;4938035;29;20030;-90
2021/05/07 07:50:02;;;;;;;4.40;2.47;;;7.20;99.90;;;;;;4945361;28;20019;-89
2021/05/07 07:52:28;;;;;;;4.63;2.30;;;6.90;99.90;;;;;;4944499;28;20113;-88
2021/05/07 07:54:53;;;;;;;5.00;2.47;;;6.70;99.90;;;;;;4937659;28;20544;-88
2021/05/07 07:57:19;;;;;;;4.77;2.33;;;6.70;99.90;;;;;;4955630;28;20042;-88
2021/05/07 07:59:45;;;;;;;5.43;2.43;;;6.80;99.90;;;;;;4957041;28;20035;-89
2021/05/07 08:02:10;;;;;;;5.23;2.33;;;6.80;99.90;;;;;;4959083;28;20071;-89
2021/05/07 08:04:36;;;;;;;6.37;2.53;;;6.90;99.90;;;;;;4959397;28;20473;-89
2021/05/07 08:07:02;;;;;;;5.53;2.53;;;7.10;99.90;;;;;;4940760;28;20433;-88
2021/05/07 08:09:27;;;;;;;5.70;2.87;;;7.20;99.90;;;;;;4943211;28;20035;-88
2021/05/07 08:11:53;;;;;;;4.90;2.50;;;7.40;99.90;;;;;;4942555;28;20765;-89
2021/05/07 08:14:19;;;;;;;5.20;2.97;;;7.50;99.90;;;;;;4956583;28;20038;-88
2021/05/07 08:16:46;;;;;;;4.97;2.60;;;7.60;99.90;;;;;;4950314;28;20057;-90
2021/05/07 08:19:11;;;;;;;5.67;2.60;;;7.90;99.90;;;;;;4938331;29;20054;-89
2021/05/07 08:21:37;;;;;;;3.97;2.27;;;8.20;99.90;;;;;;4956382;28;20031;-89
2021/05/07 08:24:04;;;;;;;5.20;2.47;;;8.50;99.90;;;;;;4946750;28;20122;-90
2021/05/07 08:26:29;;;;;;;6.30;2.37;;;8.70;99.90;;;;;;4947996;28;20117;-89
2021/05/07 08:28:55;;;;;;;5.30;2.53;;;8.90;99.90;;;;;;4946838;28;20464;-89
2021/05/07 08:31:21;;;;;;;5.63;2.80;;;8.70;99.90;;;;;;4944495;28;20062;-89
2021/05/07 08:33:46;;;;;;;3.43;1.87;;;8.90;99.90;;;;;;4945195;28;20110;-87
2021/05/07 08:36:12;;;;;;;4.30;2.00;;;9.30;99.90;;;;;;4944204;29;20040;-89
2021/05/07 08:38:38;;;;;;;5.30;2.07;;;9.40;99.90;;;;;;4960975;28;20071;-89
2021/05/07 08:41:04;;;;;;;5.78;2.05;;;9.40;99.90;;;;;;4947386;28;20031;-87
2021/05/07 08:43:31;;;;;;;3.42;1.77;;;9.50;99.90;;;;;;4967864;28;20385;-89
2021/05/07 08:46:02;;;;;;;7.82;1.83;;;9.60;99.90;;;;;;4946927;28;20034;-87
2021/05/07 08:48:29;;;;;;;4.47;2.08;;;9.60;99.90;;;;;;4946104;29;20035;-88
2021/05/07 08:50:55;;;;;;;4.20;1.95;;;9.70;99.90;;;;;;4959398;28;20512;-90
2021/05/07 08:53:21;;;;;;;4.03;1.92;;;9.70;99.90;;;;;;4944525;28;20031;-89
2021/05/07 08:55:48;;;;;;;3.50;1.67;;;9.80;99.90;;;;;;4942785;29;20034;-89
2021/05/07 08:58:17;;;;;;;4.03;1.42;;;9.90;99.90;;;;;;4958665;28;20035;-90
2021/05/07 09:00:43;;;;;;;5.13;1.75;;;10.30;99.90;;;;;;4948152;28;20072;-87
2021/05/07 09:03:12;;;;;;;3.70;1.50;;;10.00;99.90;;;;;;4958189;28;20113;-88
2021/05/07 09:05:38;;;;;;;3.15;1.52;;;10.50;99.90;;;;;;4938259;28;20117;-88
2021/05/07 09:08:05;;;;;;;3.20;1.77;;;10.40;99.90;;;;;;4960485;28;20154;-88
2021/05/07 09:10:43;;;;;;;4.38;1.80;;;10.60;99.90;;;;;;4959967;28;20066;-88
2021/05/07 09:13:11;;;;;;;3.10;1.38;;;10.70;99.90;;;;;;4942430;28;20118;-88
2021/05/07 09:15:50;;;;;;;2.58;1.48;;;10.40;99.90;;;;;;4934874;28;20039;-87
2021/05/07 09:18:16;;;;;;;3.95;1.70;;;10.50;99.90;;;;;;4951197;28;20031;-87
2021/05/07 09:20:46;;;;;;;4.53;1.70;;;10.30;99.90;;;;;;4944178;28;20665;-87
2021/05/07 09:23:13;;;;;;;2.72;1.15;;;10.60;99.90;;;;;;4936590;28;20064;-87
2021/05/07 09:25:40;;;;;;;4.05;1.65;;;11.00;99.90;;;;;;4939023;28;20027;-89
2021/05/07 09:28:15;;;;;;;4.00;1.60;;;11.20;99.90;;;;;;4946060;28;20033;-88
2021/05/07 09:30:42;;;;;;;3.40;1.52;;;11.50;99.90;;;;;;4937043;28;20052;-88
2021/05/07 09:33:13;;;;;;;2.40;1.40;;;11.70;99.90;;;;;;4942647;28;20018;-89
2021/05/07 09:35:41;;;;;;;2.67;1.00;;;12.20;99.90;;;;;;4938506;28;20031;-92
2021/05/07 09:38:12;;;;;;;4.00;1.48;;;12.10;97.60;;;;;;4942659;28;20019;-88
2021/05/07 09:40:40;;;;;;;3.15;1.58;;;12.00;97.30;;;;;;4937504;28;20038;-90
2021/05/07 09:43:14;;;;;;;3.15;1.40;;;11.50;96.80;;;;;;4953303;28;20027;-88
2021/05/07 09:45:45;;;;;;;3.25;1.33;;;11.10;97.30;;;;;;4959955;28;20260;-86
2021/05/07 09:48:22;;;;;;;3.92;1.63;;;10.80;98.30;;;;;;4933831;28;20125;-86
2021/05/07 09:50:51;;;;;;;2.95;1.38;;;11.00;99.00;;;;;;4935966;28;20032;-88
2021/05/07 09:53:21;;;;;;;4.70;1.70;;;11.40;98.40;;;;;;4942785;28;20077;-89
2021/05/07 09:56:01;;;;;;;3.78;1.70;;;11.80;99.30;;;;;;4935132;29;20032;-92
2021/05/07 09:58:29;;;;;;;3.35;1.35;;;12.30;94.50;;;;;;4938228;29;20109;-92
2021/05/07 10:01:07;;;;;;;2.92;1.42;;;12.40;87.20;;;;;;4938478;29;20035;-89
2021/05/07 10:03:33;;;;;;;2.53;1.17;;;12.10;87.10;;;;;;4941339;29;20039;-90
2021/05/07 10:06:01;;;;;;;3.80;1.55;;;11.70;87.70;;;;;;4958407;28;20125;-91
2021/05/07 10:08:27;;;;;;;3.63;1.40;;;11.80;89.20;;;;;;4940592;29;20055;-90
2021/05/07 10:11:05;;;;;;;3.40;1.35;;;11.90;91.40;;;;;;4950373;28;20128;-89
2021/05/07 10:13:32;;;;;;;3.30;1.42;;;11.80;90.50;;;;;;4958195;28;20126;-89
2021/05/07 10:16:08;;;;;;;2.78;1.35;;;11.70;92.20;;;;;;4974942;28;20157;-89
2021/05/07 10:18:37;;;;;;;2.45;1.10;;;11.90;90.50;;;;;;4941349;29;20374;-88
2021/05/07 10:21:05;;;;;;;2.13;1.00;;;12.20;88.40;;;;;;4954539;28;20138;-87
2021/05/07 10:23:34;;;;;;;2.63;1.23;;;12.00;82.20;;;;;;4963948;28;20034;-87
2021/05/07 10:26:05;;;;;;;2.05;1.00;;;11.70;85.90;;;;;;4961543;28;20027;-88
2021/05/07 10:28:49;;;;;;;2.37;1.30;;;12.20;84.70;;;;;;4953415;28;20396;-87
2021/05/07 10:31:16;;;;;;;5.43;1.65;;;12.20;83.00;;;;;;4955463;28;20037;-87
2021/05/07 10:33:59;;;;;;;2.10;1.05;;;12.10;82.80;;;;;;4948161;28;20038;-86
2021/05/07 10:36:44;;;;;;;2.60;1.20;;;11.60;81.00;;;;;;4953401;28;20077;-86
2021/05/07 10:39:34;;;;;;;2.65;1.10;;;11.30;79.40;;;;;;4958561;28;20529;-89
2021/05/07 10:42:14;;;;;;;3.05;1.30;;;11.00;79.50;;;;;;4941241;28;20023;-86
2021/05/07 10:44:43;;;;;;;3.13;1.48;;;10.80;82.90;;;;;;4945742;29;20035;-88
2021/05/07 10:47:18;;;;;;;5.25;1.40;;;10.70;83.90;;;;;;4956112;29;20085;-89
2021/05/07 10:49:46;;;;;;;3.42;1.17;;;11.10;86.10;;;;;;4952967;29;20027;-92
2021/05/07 10:52:15;;;;;;;2.80;1.08;;;11.00;80.00;;;;;;4932662;29;20027;-90
2021/05/07 10:54:47;;;;;;;2.13;1.10;;;10.80;80.50;;;;;;4940737;28;20093;-87
2021/05/07 10:57:39;;;;;;;1.77;0.80;;;10.70;81.30;;;;;;4953434;28;20031;-88
2021/05/07 11:00:12;;;;;;;3.50;1.30;;;11.10;78.30;;;;;;4954354;29;20043;-87
2021/05/07 11:02:47;;;;;;;3.00;1.02;;;11.60;78.10;;;;;;4958852;28;20039;-87
2021/05/07 11:05:33;;;;;;;2.35;0.90;;;11.60;72.00;;;;;;4955694;28;20044;-87
2021/05/07 11:07:58;;;;;;;2.45;1.17;;;11.50;74.50;;;;;;4944797;29;20019;-88
2021/05/07 11:10:33;;;;;;;2.60;1.17;;;11.20;74.70;;;;;;4956175;29;20027;-86
2021/05/07 11:12:59;;;;;;;3.72;1.10;;;11.30;78.60;;;;;;4938317;29;20034;-85
2021/05/07 11:15:24;;;;;;;2.45;1.15;;;11.30;74.10;;;;;;4940219;29;20024;-87
2021/05/07 11:18:10;;;;;;;4.03;1.20;;;11.20;75.00;;;;;;4940837;29;20046;-86
2021/05/07 11:20:38;;;;;;;5.05;1.48;;;11.00;75.30;;;;;;4935004;29;20034;-85
2021/05/07 11:23:11;;;;;;;2.22;1.13;;;10.90;77.70;;;;;;4936672;29;20086;-88
2021/05/07 11:25:40;;;;;;;1.98;1.00;;;10.70;75.90;;;;;;4939969;29;20027;-86
2021/05/07 11:28:18;;;;;;;3.03;1.27;;;10.70;76.60;;;;;;4952127;28;20102;-85
2021/05/07 11:30:56;;;;;;;2.65;1.20;;;10.80;78.70;;;;;;4935255;29;20038;-85
2021/05/07 11:33:30;;;;;;;4.97;0.98;;;11.00;82.10;;;;;;4941037;29;20031;-86
2021/05/07 11:36:12;;;;;;;5.38;1.00;;;11.80;84.30;;;;;;4943119;29;20047;-86
2021/05/07 11:38:41;;;;;;;3.17;1.13;;;12.70;80.30;;;;;;4944203;29;20034;-86
2021/05/07 11:41:22;;;;;;;2.28;1.00;;;13.20;75.80;;;;;;4954312;29;20031;-86
2021/05/07 11:43:50;;;;;;;4.25;1.40;;;13.30;75.60;;;;;;4952732;29;20031;-87
2021/05/07 11:46:16;;;;;;;2.92;1.20;;;13.70;77.30;;;;;;4932801;29;20509;-86
2021/05/07 11:48:49;;;;;;;2.75;1.13;;;14.20;73.60;;;;;;4959717;29;20026;-86
2021/05/07 11:51:17;;;;;;;2.67;1.13;;;14.00;70.80;;;;;;4940676;28;20711;-86
2021/05/07 11:53:43;;;;;;;2.50;1.00;;;14.40;70.70;;;;;;4940943;29;20038;-85
2021/05/07 11:56:21;;;;;;;4.40;1.33;;;14.10;71.40;;;;;;4951194;29;20023;-87
2021/05/07 11:58:49;;;;;;;2.53;1.23;;;14.00;71.80;;;;;;4941626;29;20043;-87
2021/05/07 12:01:17;;;;;;;2.40;1.08;;;13.80;72.20;;;;;;4940434;28;20089;-87
2021/05/07 12:03:43;;;;;;;3.05;1.10;;;13.20;73.50;;;;;;4939633;29;20097;-86
2021/05/07 12:06:20;;;;;;;2.05;1.08;;;12.60;70.20;;;;;;4929989;29;20067;-85
2021/05/07 12:08:50;;;;;;;1.92;0.98;;;12.10;71.70;;;;;;4958324;29;20030;-85
2021/05/07 12:11:20;;;;;;;3.22;1.15;;;12.10;72.20;;;;;;4952811;28;20488;-85
2021/05/07 12:13:47;;;;;;;3.55;1.30;;;12.40;71.80;;;;;;4925587;29;20034;-86
2021/05/07 12:16:14;;;;;;;4.45;1.30;;;12.20;73.20;;;;;;4960488;29;20110;-85
2021/05/07 12:18:52;;;;;;;1.33;0.75;;;12.30;72.60;;;;;;4958941;29;20035;-86
2021/05/07 12:21:19;;;;;;;2.30;1.00;;;12.30;73.20;;;;;;4933589;28;20023;-87
2021/05/07 12:23:50;;;;;;;2.90;1.10;;;12.00;67.80;;;;;;4948550;28;20042;-85
2021/05/07 12:26:17;;;;;;;2.30;0.98;;;11.90;70.30;;;;;;4935503;29;20130;-86
2021/05/07 12:28:59;;;;;;;3.00;1.25;;;11.70;72.00;;;;;;4932994;29;20059;-86
2021/05/07 12:31:33;;;;;;;2.25;1.15;;;11.60;74.00;;;;;;4935995;28;20028;-83
2021/05/07 12:33:59;;;;;;;2.60;1.30;;;11.50;71.70;;;;;;4951602;29;20034;-86
2021/05/07 12:36:25;;;;;;;3.53;1.13;;;11.60;71.40;;;;;;4938979;29;20027;-86
2021/05/07 12:38:58;;;;;;;3.90;1.33;;;11.40;71.30;;;;;;4937646;29;20638;-86
2021/05/07 12:41:26;;;;;;;1.95;0.90;;;11.30;72.00;;;;;;4950678;28;20127;-86
2021/05/07 12:43:53;;;;;;;4.38;1.10;;;11.10;71.70;;;;;;4936234;29;20884;-86
2021/05/07 12:46:19;;;;;;;2.85;1.05;;;10.90;75.30;;;;;;4941157;28;20539;-87
2021/05/07 12:48:50;;;;;;;1.80;0.82;;;10.80;77.00;;;;;;4933240;29;20095;-86
2021/05/07 12:51:17;;;;;;;2.65;1.25;;;10.80;77.20;;;;;;4956787;28;20019;-87
2021/05/07 12:53:43;;;;;;;2.50;1.05;;;10.70;76.80;;;;;;4935259;29;20035;-87
2021/05/07 12:56:12;;;;;;;2.97;0.82;;;11.30;80.20;;;;;;4954293;29;20034;-87
2021/05/07 12:58:38;;;;;;;2.28;0.88;;;12.10;75.30;;;;;;4936488;29;20493;-86